Time;durP1;ratioP1;P1;durP2;ratioP2;P2;SDS_P1;SDS_P2;PMS_P1;PMS_P2;Temp;Humidity;BMP_temperature;BMP_pressure;BME280_temperature;BME280_humidity;BME280_pressure;Samples;Min_cycle;Max_cycle;Signal;HPM_P1;HPM_P2
2022/03/06 07:00:07;;;;;;;23.33;13.15;;;6.30;46.30;;;;;;5406472;22;21137;-84
2022/03/06 07:02:33;;;;;;;22.02;11.63;;;6.30;46.00;;;;;;5017727;28;20497;-84
2022/03/06 07:04:59;;;;;;;22.48;11.95;;;6.30;45.70;;;;;;5021360;28;20085;-84
2022/03/06 07:07:25;;;;;;;18.63;11.70;;;6.40;46.40;;;;;;5016791;28;20108;-90
2022/03/06 07:09:50;;;;;;;18.65;11.15;;;6.40;46.40;;;;;;5017514;28;20056;-84
2022/03/06 07:12:16;;;;;;;18.17;10.40;;;6.50;45.80;;;;;;5026510;28;20086;-83
2022/03/06 07:14:42;;;;;;;19.70;10.30;;;6.60;45.00;;;;;;5018966;28;20084;-84
2022/03/06 07:17:07;;;;;;;30.13;11.02;;;6.60;45.60;;;;;;5027838;28;20052;-84
2022/03/06 07:19:33;;;;;;;17.95;9.55;;;6.80;46.30;;;;;;5020174;28;20173;-84
2022/03/06 07:21:59;;;;;;;14.73;9.35;;;7.00;44.60;;;;;;5020470;28;20121;-84
2022/03/06 07:24:26;;;;;;;17.83;11.10;;;7.20;44.50;;;;;;5030956;28;20030;-84
2022/03/06 07:26:52;;;;;;;17.98;8.70;;;7.10;44.20;;;;;;5018763;28;20469;-83
2022/03/06 07:29:18;;;;;;;19.20;12.27;;;7.20;46.30;;;;;;5020577;28;20041;-90
2022/03/06 07:31:43;;;;;;;16.30;9.90;;;7.30;44.20;;;;;;5028116;28;20033;-85
2022/03/06 07:34:09;;;;;;;17.17;9.77;;;7.30;44.80;;;;;;5023707;28;20045;-85
2022/03/06 07:36:35;;;;;;;16.55;10.07;;;7.40;43.60;;;;;;5023619;28;20160;-84
2022/03/06 07:39:00;;;;;;;15.73;9.60;;;7.50;44.60;;;;;;5026014;28;20030;-84
2022/03/06 07:41:26;;;;;;;16.98;10.32;;;7.60;45.20;;;;;;5021659;28;20144;-84
2022/03/06 07:43:52;;;;;;;13.90;9.02;;;7.70;43.20;;;;;;5014689;28;20034;-84
2022/03/06 07:46:18;;;;;;;15.27;10.10;;;7.70;43.40;;;;;;5001376;28;20037;-84
2022/03/06 07:48:43;;;;;;;12.07;8.50;;;7.70;42.80;;;;;;5032956;28;20033;-83
2022/03/06 07:51:09;;;;;;;13.48;8.93;;;7.90;43.90;;;;;;5033760;28;20041;-83
2022/03/06 07:53:34;;;;;;;12.63;8.23;;;7.90;43.60;;;;;;5027663;28;20068;-84
2022/03/06 07:56:00;;;;;;;12.75;9.27;;;8.10;42.60;;;;;;5033565;28;20030;-83
2022/03/06 07:58:26;;;;;;;16.05;9.90;;;8.10;43.10;;;;;;5033818;28;20057;-83
2022/03/06 08:00:52;;;;;;;13.48;9.20;;;8.20;42.80;;;;;;5033015;28;20733;-83
2022/03/06 08:03:17;;;;;;;11.48;8.05;;;8.20;43.70;;;;;;5025491;28;20065;-84
2022/03/06 08:05:44;;;;;;;12.23;8.20;;;8.40;44.10;;;;;;5049515;28;20028;-84
2022/03/06 08:08:10;;;;;;;13.48;8.95;;;8.50;44.20;;;;;;5036371;28;20041;-84
2022/03/06 08:10:35;;;;;;;13.02;9.43;;;8.50;43.90;;;;;;5036189;28;20087;-84
2022/03/06 08:13:01;;;;;;;19.73;9.88;;;8.70;43.10;;;;;;5018648;28;20386;-84
2022/03/06 08:15:27;;;;;;;12.35;8.50;;;8.80;43.30;;;;;;5031296;28;20160;-84
2022/03/06 08:17:53;;;;;;;13.98;10.07;;;8.80;43.60;;;;;;5032787;28;20046;-84
2022/03/06 08:20:18;;;;;;;12.40;9.35;;;8.80;43.70;;;;;;5016335;28;20065;-84
2022/03/06 08:22:44;;;;;;;11.55;8.38;;;9.00;44.50;;;;;;5034195;28;20037;-83
2022/03/06 08:25:10;;;;;;;14.30;9.75;;;9.10;43.50;;;;;;5032935;28;20477;-83
2022/03/06 08:27:36;;;;;;;14.40;9.25;;;9.20;43.40;;;;;;4999655;28;20374;-83
2022/03/06 08:30:07;;;;;;;14.93;10.10;;;9.30;43.80;;;;;;5014184;28;20458;-83
2022/03/06 08:32:33;;;;;;;16.17;10.40;;;9.30;42.60;;;;;;5022147;28;20037;-83
2022/03/06 08:34:59;;;;;;;14.68;10.18;;;9.50;42.60;;;;;;5033668;28;20409;-83
2022/03/06 08:37:25;;;;;;;18.20;10.57;;;9.60;42.30;;;;;;5033169;28;20033;-84
2022/03/06 08:39:51;;;;;;;14.18;10.38;;;9.70;42.20;;;;;;5033835;28;20057;-83
2022/03/06 08:42:17;;;;;;;14.50;9.82;;;9.70;42.20;;;;;;5015935;28;20037;-83
2022/03/06 08:44:43;;;;;;;16.50;10.40;;;9.80;42.30;;;;;;5033784;28;20112;-83
2022/03/06 08:47:09;;;;;;;14.68;10.27;;;10.00;42.30;;;;;;5016322;28;20128;-83
2022/03/06 08:49:35;;;;;;;14.85;9.63;;;10.00;42.20;;;;;;5019483;28;20501;-83
2022/03/06 08:52:01;;;;;;;14.43;10.18;;;10.10;41.00;;;;;;5013269;28;20079;-83
2022/03/06 08:54:27;;;;;;;12.07;9.57;;;10.20;41.10;;;;;;5013680;28;20037;-84
2022/03/06 08:56:53;;;;;;;13.40;10.68;;;10.30;41.20;;;;;;5028442;28;20068;-83
2022/03/06 08:59:21;;;;;;;15.45;10.45;;;10.50;40.40;;;;;;5032974;28;20420;-83
2022/03/06 09:01:48;;;;;;;16.73;10.57;;;10.60;40.10;;;;;;5032174;28;20485;-83
2022/03/06 09:04:14;;;;;;;16.20;11.45;;;10.60;40.60;;;;;;5033658;28;20072;-83
2022/03/06 09:06:41;;;;;;;14.75;10.35;;;10.70;39.70;;;;;;5016095;28;20045;-84
2022/03/06 09:09:07;;;;;;;12.95;9.80;;;10.60;38.50;;;;;;5030621;28;20030;-84
2022/03/06 09:11:34;;;;;;;14.35;9.98;;;10.60;39.50;;;;;;5040006;28;20092;-86
2022/03/06 09:13:59;;;;;;;13.73;10.32;;;10.70;39.30;;;;;;5034156;28;20038;-83
2022/03/06 09:16:25;;;;;;;11.13;8.10;;;10.80;38.10;;;;;;5031098;28;20452;-83
2022/03/06 09:18:51;;;;;;;13.65;9.00;;;11.00;38.70;;;;;;5031372;28;20125;-83
2022/03/06 09:21:17;;;;;;;11.82;9.15;;;11.10;37.60;;;;;;5032316;28;20030;-84
2022/03/06 09:23:43;;;;;;;14.85;9.95;;;11.30;36.70;;;;;;5031614;28;20520;-84
2022/03/06 09:26:09;;;;;;;11.25;8.57;;;11.20;36.00;;;;;;5005918;28;20046;-84
2022/03/06 09:28:35;;;;;;;9.73;7.25;;;11.30;35.80;;;;;;5032621;28;20045;-84
2022/03/06 09:31:00;;;;;;;10.60;7.68;;;11.40;35.70;;;;;;5032278;28;20042;-84
2022/03/06 09:33:26;;;;;;;11.82;8.38;;;11.70;35.60;;;;;;5032626;28;20478;-84
2022/03/06 09:35:52;;;;;;;13.75;10.18;;;11.90;35.70;;;;;;5032812;28;20044;-83
2022/03/06 09:38:18;;;;;;;15.32;10.40;;;11.90;35.20;;;;;;5013403;28;20088;-83
2022/03/06 09:40:44;;;;;;;15.18;10.27;;;11.90;34.10;;;;;;5012813;28;20489;-83
2022/03/06 09:43:16;;;;;;;11.00;8.85;;;11.80;34.30;;;;;;5012694;28;20064;-83
2022/03/06 09:45:43;;;;;;;11.75;8.65;;;12.00;34.00;;;;;;5012840;28;20044;-83
2022/03/06 09:48:10;;;;;;;10.70;8.65;;;12.00;33.10;;;;;;4995182;28;20486;-83
2022/03/06 09:50:36;;;;;;;13.05;8.95;;;12.30;33.60;;;;;;5031147;28;20530;-83
2022/03/06 09:53:03;;;;;;;12.82;9.20;;;12.40;31.20;;;;;;5032140;28;20033;-83
2022/03/06 09:55:30;;;;;;;12.40;8.07;;;12.50;31.30;;;;;;5032005;28;20113;-83
2022/03/06 09:57:57;;;;;;;14.98;9.07;;;12.60;30.70;;;;;;5032100;28;20025;-83
2022/03/06 10:00:24;;;;;;;11.50;8.60;;;12.80;31.40;;;;;;5029900;28;20488;-84
2022/03/06 10:03:01;;;;;;;11.52;8.75;;;12.80;31.00;;;;;;5012565;28;20038;-83
2022/03/06 10:05:30;;;;;;;11.40;9.18;;;12.80;30.70;;;;;;5015138;28;20474;-83
2022/03/06 10:08:19;;;;;;;14.50;9.13;;;12.90;30.60;;;;;;5016652;28;20116;-84
2022/03/06 10:10:46;;;;;;;9.80;7.78;;;12.90;31.20;;;;;;5016502;28;20048;-84
2022/03/06 10:13:24;;;;;;;10.93;8.35;;;13.20;31.10;;;;;;5026584;28;20037;-84
2022/03/06 10:16:05;;;;;;;12.23;9.70;;;13.50;30.30;;;;;;5034633;28;20042;-84
2022/03/06 10:18:32;;;;;;;;;;;13.70;29.90;;;;;;4999530;28;20049;-85
2022/03/06 10:21:25;;;;;;;17.75;9.50;;;13.70;40.00;;;;;;5024424;28;19909;-84
2022/03/06 10:23:59;;;;;;;12.65;9.55;;;13.70;32.00;;;;;;5029896;28;20073;-84
2022/03/06 10:26:28;;;;;;;11.80;8.63;;;13.80;34.20;;;;;;5024869;28;20034;-85
2022/03/06 10:28:57;;;;;;;14.85;9.35;;;13.90;39.40;;;;;;5029461;28;20045;-85
2022/03/06 10:31:25;;;;;;;12.60;9.18;;;14.10;39.50;;;;;;5025690;28;20433;-84
2022/03/06 10:33:54;;;;;;;11.68;8.88;;;14.30;33.80;;;;;;5036706;28;20037;-84
2022/03/06 10:36:32;;;;;;;12.25;9.05;;;14.50;32.90;;;;;;5042768;28;20046;-85
2022/03/06 10:38:58;;;;;;;13.57;9.68;;;14.70;30.70;;;;;;5035194;28;20033;-84
2022/03/06 10:41:40;;;;;;;12.57;9.73;;;14.90;31.60;;;;;;5031392;28;20125;-84
2022/03/06 10:44:08;;;;;;;12.13;9.82;;;15.00;31.00;;;;;;5046759;28;20095;-84
2022/03/06 10:46:34;;;;;;;14.77;11.10;;;14.90;30.40;;;;;;5024298;28;20102;-84
2022/03/06 10:49:02;;;;;;;10.95;9.20;;;14.90;28.80;;;;;;5032023;28;20067;-84
2022/03/06 10:51:28;;;;;;;10.38;8.80;;;14.90;29.70;;;;;;5008379;28;20507;-85
2022/03/06 10:53:57;;;;;;;11.43;9.93;;;14.90;31.10;;;;;;5027626;28;20049;-85
2022/03/06 10:56:23;;;;;;;17.05;10.57;;;15.10;31.30;;;;;;5038600;28;20377;-85
2022/03/06 10:58:49;;;;;;;13.40;9.85;;;15.10;30.70;;;;;;5012004;28;20504;-85
2022/03/06 11:01:16;;;;;;;10.48;9.38;;;15.00;29.20;;;;;;5038932;28;20049;-83
2022/03/06 11:03:42;;;;;;;10.73;9.30;;;15.10;30.00;;;;;;5013186;28;20045;-84
2022/03/06 11:06:10;;;;;;;11.88;9.20;;;15.20;30.10;;;;;;5033003;28;20104;-84
2022/03/06 11:08:37;;;;;;;13.35;9.65;;;15.30;29.60;;;;;;5026637;28;20041;-87
2022/03/06 11:11:08;;;;;;;10.88;9.13;;;15.50;29.60;;;;;;5039379;28;20034;-84
2022/03/06 11:13:35;;;;;;;10.90;8.75;;;15.80;28.40;;;;;;5028948;28;20065;-84
2022/03/06 11:16:01;;;;;;;10.77;8.80;;;15.90;28.90;;;;;;5013797;28;20080;-84
2022/03/06 11:18:28;;;;;;;11.02;8.30;;;16.10;29.20;;;;;;5022285;28;20048;-84
2022/03/06 11:20:56;;;;;;;11.10;8.35;;;16.20;27.60;;;;;;5029184;28;20048;-84
2022/03/06 11:23:37;;;;;;;11.60;9.02;;;16.30;27.50;;;;;;5027572;28;20041;-84
2022/03/06 11:26:18;;;;;;;10.27;8.43;;;16.10;26.90;;;;;;5034672;28;20037;-84
2022/03/06 11:29:02;;;;;;;10.15;8.32;;;15.90;27.00;;;;;;5035393;28;20041;-84
2022/03/06 11:31:48;;;;;;;10.00;8.18;;;15.70;27.80;;;;;;5016559;28;20029;-84
2022/03/06 11:34:38;;;;;;;9.38;8.00;;;15.70;27.40;;;;;;5030935;28;20104;-83
2022/03/06 11:37:13;;;;;;;10.55;8.27;;;15.70;27.50;;;;;;5026419;28;20038;-84
2022/03/06 11:39:38;;;;;;;12.35;8.70;;;15.80;28.50;;;;;;5029215;28;20040;-84
2022/03/06 11:42:09;;;;;;;8.63;7.72;;;15.90;28.10;;;;;;5040635;28;20030;-84
2022/03/06 11:44:40;;;;;;;11.05;8.98;;;16.10;28.00;;;;;;5049525;28;20477;-84
2022/03/06 11:47:18;;;;;;;11.05;9.77;;;16.30;28.30;;;;;;5027639;28;20386;-84
2022/03/06 11:49:53;;;;;;;12.50;9.10;;;16.40;27.40;;;;;;5033855;28;20085;-85
2022/03/06 11:52:29;;;;;;;12.32;9.15;;;16.60;27.10;;;;;;5027080;28;20536;-84
2022/03/06 11:54:55;;;;;;;10.98;9.73;;;17.10;27.00;;;;;;5017849;28;20499;-84
2022/03/06 11:57:45;;;;;;;12.70;9.95;;;17.40;27.00;;;;;;5030108;28;20104;-84
2022/03/06 12:00:18;;;;;;;10.73;9.48;;;17.50;26.20;;;;;;5024843;28;20114;-84
2022/03/06 12:02:49;;;;;;;10.48;8.85;;;17.20;25.80;;;;;;5026425;28;20049;-85
2022/03/06 12:05:16;;;;;;;10.27;8.88;;;16.60;26.00;;;;;;5034428;28;20045;-84
2022/03/06 12:07:42;;;;;;;12.60;8.60;;;16.40;26.50;;;;;;5031961;28;20033;-84
2022/03/06 12:10:12;;;;;;;9.93;8.45;;;16.60;25.40;;;;;;5033357;28;20057;-84
2022/03/06 12:12:38;;;;;;;11.18;8.63;;;17.10;26.70;;;;;;5018391;28;20066;-84
2022/03/06 12:15:16;;;;;;;9.50;8.48;;;17.70;26.20;;;;;;5034009;28;20485;-85
2022/03/06 12:17:42;;;;;;;9.98;8.20;;;18.10;24.60;;;;;;5025161;28;20029;-84
2022/03/06 12:20:08;;;;;;;11.77;9.15;;;18.10;25.50;;;;;;5016206;28;20064;-84
2022/03/06 12:22:36;;;;;;;11.23;9.75;;;18.00;26.40;;;;;;5037605;28;20068;-84
2022/03/06 12:25:08;;;;;;;12.20;10.40;;;17.50;26.00;;;;;;5031889;28;20512;-84
2022/03/06 12:27:36;;;;;;;11.80;10.43;;;17.00;26.30;;;;;;5010300;28;20046;-84
2022/03/06 12:30:05;;;;;;;14.98;10.50;;;16.80;28.20;;;;;;5038301;28;20079;-84
2022/03/06 12:32:32;;;;;;;13.38;11.05;;;16.50;28.40;;;;;;5033674;28;20079;-84
2022/03/06 12:34:58;;;;;;;18.67;10.05;;;15.90;27.40;;;;;;5033863;28;20080;-84
2022/03/06 12:37:41;;;;;;;15.07;11.13;;;16.00;27.60;;;;;;5039324;28;20041;-83
2022/03/06 12:40:09;;;;;;;13.63;9.75;;;16.10;28.20;;;;;;5022764;28;20041;-84
2022/03/06 12:42:36;;;;;;;13.93;10.27;;;16.20;27.50;;;;;;5029405;28;20043;-83
2022/03/06 12:45:06;;;;;;;16.08;11.57;;;16.30;27.20;;;;;;5007891;28;20040;-83
2022/03/06 12:47:34;;;;;;;11.35;9.43;;;16.30;27.60;;;;;;5032254;28;20041;-84
2022/03/06 12:50:00;;;;;;;15.10;10.75;;;16.70;27.90;;;;;;5042217;28;20717;-84
2022/03/06 12:52:28;;;;;;;16.92;10.80;;;17.20;27.40;;;;;;5020709;28;20483;-85
2022/03/06 12:54:56;;;;;;;15.77;10.90;;;17.20;27.50;;;;;;5028264;28;20104;-84
2022/03/06 12:57:28;;;;;;;13.15;10.07;;;17.30;26.80;;;;;;5038960;28;20055;-84
2022/03/06 12:59:54;;;;;;;11.75;9.15;;;17.50;26.30;;;;;;5022408;28;20532;-84
2022/03/06 13:02:21;;;;;;;15.00;10.10;;;17.90;25.40;;;;;;5032947;28;20041;-83
2022/03/06 13:04:54;;;;;;;13.15;9.98;;;18.10;25.50;;;;;;5032724;28;20111;-85
2022/03/06 13:07:31;;;;;;;11.52;9.73;;;18.10;25.80;;;;;;5021949;28;20148;-84
2022/03/06 13:09:58;;;;;;;11.13;9.15;;;17.90;24.90;;;;;;5034655;28;20084;-84
2022/03/06 13:12:28;;;;;;;12.20;9.85;;;18.10;25.70;;;;;;5016732;28;20052;-84
2022/03/06 13:14:53;;;;;;;12.53;9.70;;;18.10;25.80;;;;;;5035677;28;20029;-84
2022/03/06 13:17:20;;;;;;;12.05;9.57;;;18.00;26.00;;;;;;5031641;28;20270;-84
2022/03/06 13:19:50;;;;;;;10.43;9.07;;;17.50;26.20;;;;;;5038735;28;20056;-84
2022/03/06 13:22:20;;;;;;;12.38;9.90;;;17.00;26.50;;;;;;5027950;28;20029;-84
2022/03/06 13:24:52;;;;;;;11.77;9.17;;;16.50;27.00;;;;;;5021907;28;20041;-85
2022/03/06 13:27:22;;;;;;;11.93;9.15;;;16.40;28.20;;;;;;5018583;28;20093;-84
2022/03/06 13:30:11;;;;;;;13.43;9.65;;;15.60;28.50;;;;;;5021974;28;20458;-85
2022/03/06 13:32:45;;;;;;;11.90;9.82;;;15.40;29.20;;;;;;5017826;28;20045;-82
2022/03/06 13:35:34;;;;;;;13.38;10.30;;;15.10;28.50;;;;;;5021432;28;20041;-85
2022/03/06 13:38:09;;;;;;;11.88;9.30;;;15.00;29.70;;;;;;5009146;28;20049;-84
2022/03/06 13:40:36;;;;;;;14.38;11.05;;;14.80;29.10;;;;;;5032606;28;20174;-83
2022/03/06 13:43:02;;;;;;;11.90;9.13;;;14.70;31.40;;;;;;5027879;28;20390;-84
2022/03/06 13:45:28;;;;;;;12.95;9.88;;;14.50;29.90;;;;;;5051889;28;20039;-84
2022/03/06 13:48:00;;;;;;;17.92;9.60;;;14.40;30.00;;;;;;5044052;28;20044;-84
2022/03/06 13:50:37;;;;;;;16.52;9.60;;;14.40;31.30;;;;;;5048367;28;20034;-84
2022/03/06 13:53:04;;;;;;;13.75;9.82;;;14.20;31.10;;;;;;5048409;28;20056;-84
2022/03/06 13:55:31;;;;;;;19.25;10.68;;;14.30;32.60;;;;;;5030075;28;20540;-84
2022/03/06 13:58:12;;;;;;;16.58;9.88;;;14.00;32.60;;;;;;5015442;28;20396;-84
2022/03/06 14:00:44;;;;;;;14.07;9.05;;;14.00;33.70;;;;;;5013501;28;20048;-84
2022/03/06 14:03:13;;;;;;;16.55;10.13;;;14.00;34.20;;;;;;5032978;28;20048;-84
2022/03/06 14:05:46;;;;;;;14.85;9.60;;;14.10;33.20;;;;;;5045302;28;20033;-84
2022/03/06 14:08:18;;;;;;;17.02;9.70;;;13.90;33.90;;;;;;5041286;28;20566;-85
2022/03/06 14:10:44;;;;;;;14.55;9.88;;;13.70;34.30;;;;;;5029129;28;20034;-85
2022/03/06 14:13:25;;;;;;;16.10;10.45;;;13.50;33.70;;;;;;5021649;28;20045;-85
2022/03/06 14:16:18;;;;;;;20.33;9.38;;;13.40;34.00;;;;;;5033623;28;20427;-86
2022/03/06 14:18:47;;;;;;;19.00;9.45;;;13.30;33.70;;;;;;5018913;28;20474;-85
2022/03/06 14:21:16;;;;;;;14.52;9.65;;;13.10;33.70;;;;;;5048811;28;20465;-85
2022/03/06 14:23:42;;;;;;;15.47;9.13;;;13.10;33.80;;;;;;5029488;28;20365;-85
2022/03/06 14:26:07;;;;;;;11.85;9.10;;;13.10;33.90;;;;;;5032639;28;20037;-85
2022/03/06 14:28:33;;;;;;;13.40;8.45;;;13.00;35.10;;;;;;5051552;28;20455;-85
2022/03/06 14:30:59;;;;;;;13.65;9.15;;;13.00;35.40;;;;;;5040956;28;20030;-85
2022/03/06 14:33:25;;;;;;;15.18;9.05;;;12.90;35.50;;;;;;5021731;28;20069;-85
2022/03/06 14:35:50;;;;;;;11.98;8.27;;;12.80;36.30;;;;;;5045970;28;20032;-85
2022/03/06 14:38:16;;;;;;;18.30;9.02;;;12.80;35.10;;;;;;5034863;28;20047;-85
2022/03/06 14:40:42;;;;;;;11.32;8.10;;;12.80;35.00;;;;;;5043731;28;20075;-85
2022/03/06 14:43:07;;;;;;;13.40;8.60;;;12.90;35.30;;;;;;5022143;28;20043;-85
2022/03/06 14:45:33;;;;;;;13.27;9.52;;;12.80;35.10;;;;;;5035141;28;20111;-85
2022/03/06 14:47:59;;;;;;;13.88;8.80;;;12.80;36.30;;;;;;5037536;28;20539;-85
2022/03/06 14:50:25;;;;;;;12.43;7.95;;;12.70;34.90;;;;;;5050124;28;20033;-85
2022/03/06 14:52:51;;;;;;;15.98;9.25;;;12.70;35.40;;;;;;5049075;28;20375;-85
2022/03/06 14:55:17;;;;;;;13.27;8.48;;;12.60;35.50;;;;;;5047439;28;20073;-85
2022/03/06 14:57:43;;;;;;;10.90;7.65;;;12.50;36.00;;;;;;5045927;28;20465;-85
2022/03/06 15:00:10;;;;;;;14.55;9.00;;;12.50;37.40;;;;;;5049518;28;20041;-85
2022/03/06 15:02:36;;;;;;;15.60;8.57;;;12.50;35.40;;;;;;5003036;28;20049;-85
2022/03/06 15:05:02;;;;;;;15.43;8.38;;;12.30;36.40;;;;;;5032877;28;20037;-85
2022/03/06 15:07:28;;;;;;;10.82;7.55;;;12.20;36.60;;;;;;5026828;28;20046;-85
2022/03/06 15:09:53;;;;;;;11.77;7.40;;;12.00;36.60;;;;;;5033834;28;20045;-85
2022/03/06 15:12:19;;;;;;;11.25;7.75;;;12.00;36.30;;;;;;5034747;28;20048;-85
2022/03/06 15:14:45;;;;;;;9.55;6.97;;;12.10;36.30;;;;;;5018738;28;20041;-85
2022/03/06 15:17:11;;;;;;;10.82;7.63;;;12.10;37.00;;;;;;5016918;28;20033;-85
2022/03/06 15:19:38;;;;;;;10.73;7.90;;;12.10;37.50;;;;;;5034854;28;20091;-84
2022/03/06 15:22:04;;;;;;;9.57;6.72;;;12.10;37.00;;;;;;5034640;28;20133;-85
2022/03/06 15:24:31;;;;;;;10.57;6.88;;;12.10;36.60;;;;;;5016836;28;20153;-85
2022/03/06 15:26:58;;;;;;;10.25;7.38;;;12.10;37.40;;;;;;5007217;28;20108;-84
2022/03/06 15:29:24;;;;;;;10.68;7.85;;;12.20;37.90;;;;;;5027011;28;20065;-85
2022/03/06 15:31:50;;;;;;;16.08;8.38;;;12.10;36.10;;;;;;5016436;28;20049;-85
2022/03/06 15:34:16;;;;;;;12.25;7.38;;;12.10;37.00;;;;;;4998352;28;20108;-84
2022/03/06 15:36:43;;;;;;;10.05;6.93;;;12.00;37.70;;;;;;5005925;28;20041;-84
2022/03/06 15:39:08;;;;;;;11.80;7.35;;;12.00;37.60;;;;;;5005687;28;20068;-84
2022/03/06 15:41:34;;;;;;;11.43;7.72;;;11.90;37.80;;;;;;5022438;28;20424;-84
2022/03/06 15:44:00;;;;;;;13.82;7.50;;;11.90;38.10;;;;;;5030632;28;20401;-84
2022/03/06 15:46:26;;;;;;;11.68;6.75;;;11.80;39.00;;;;;;5019166;28;20117;-84
2022/03/06 15:48:51;;;;;;;13.20;6.80;;;11.70;39.80;;;;;;5007455;28;20034;-85
2022/03/06 15:51:17;;;;;;;17.67;7.22;;;11.70;40.10;;;;;;4999659;28;20050;-84
2022/03/06 15:53:43;;;;;;;12.45;7.60;;;11.70;38.10;;;;;;5015438;28;20030;-84
2022/03/06 15:56:08;;;;;;;10.82;6.93;;;11.60;38.80;;;;;;5010813;28;20048;-84
2022/03/06 15:58:34;;;;;;;8.82;6.93;;;11.60;39.20;;;;;;5022472;28;20395;-83
2022/03/06 16:01:00;;;;;;;10.68;7.40;;;11.70;39.30;;;;;;5004950;28;20046;-84
2022/03/06 16:03:25;;;;;;;11.02;6.78;;;11.60;39.10;;;;;;5021974;28;20065;-84
2022/03/06 16:05:51;;;;;;;10.82;6.53;;;11.50;39.50;;;;;;5033691;28;20045;-83
2022/03/06 16:08:17;;;;;;;14.45;6.80;;;11.50;39.40;;;;;;5019173;28;20483;-83
2022/03/06 16:10:44;;;;;;;10.27;6.82;;;11.50;39.40;;;;;;5014422;28;20077;-84
2022/03/06 16:13:10;;;;;;;12.45;7.10;;;11.50;39.20;;;;;;5025923;28;20042;-83
2022/03/06 16:15:36;;;;;;;12.38;7.45;;;11.40;40.10;;;;;;5017509;28;20038;-83
2022/03/06 16:18:02;;;;;;;15.05;7.70;;;11.30;40.30;;;;;;5033325;28;20021;-83
2022/03/06 16:20:28;;;;;;;10.30;7.30;;;11.30;40.50;;;;;;5019540;28;20042;-83
2022/03/06 16:22:54;;;;;;;12.63;8.15;;;11.20;39.80;;;;;;5022075;28;20049;-83
2022/03/06 16:25:20;;;;;;;13.02;7.03;;;11.20;39.90;;;;;;5008821;28;20069;-83
2022/03/06 16:27:46;;;;;;;11.93;7.82;;;11.10;39.70;;;;;;5021715;28;20037;-83
2022/03/06 16:30:13;;;;;;;10.43;6.72;;;11.10;39.80;;;;;;5033479;28;20050;-83
2022/03/06 16:32:42;;;;;;;12.15;7.82;;;11.20;40.90;;;;;;5027572;28;20069;-84
2022/03/06 16:35:10;;;;;;;12.35;6.93;;;11.10;40.30;;;;;;5021969;28;20493;-83
2022/03/06 16:37:36;;;;;;;10.20;6.53;;;11.20;39.90;;;;;;5009058;28;20494;-84
2022/03/06 16:40:03;;;;;;;11.32;6.88;;;11.20;40.20;;;;;;5018813;28;20041;-83
2022/03/06 16:42:29;;;;;;;11.35;7.55;;;11.20;40.40;;;;;;5013485;28;20101;-83
2022/03/06 16:44:55;;;;;;;8.50;6.90;;;11.00;41.00;;;;;;5021816;28;20536;-83
2022/03/06 16:47:21;;;;;;;11.55;7.10;;;11.00;41.10;;;;;;5014626;28;20046;-84
2022/03/06 16:49:47;;;;;;;15.68;7.05;;;10.90;41.10;;;;;;5025386;28;20382;-83
2022/03/06 16:52:12;;;;;;;9.95;7.43;;;10.90;41.30;;;;;;5024368;28;20393;-83
2022/03/06 16:54:41;;;;;;;11.13;6.70;;;10.80;41.60;;;;;;5012477;28;20034;-83
2022/03/06 16:57:09;;;;;;;9.60;7.30;;;10.80;41.60;;;;;;5020999;28;20033;-83
2022/03/06 16:59:35;;;;;;;12.82;6.72;;;10.80;42.60;;;;;;5022381;28;20061;-83
2022/03/06 17:02:00;;;;;;;13.50;8.57;;;10.70;43.10;;;;;;5019814;28;20462;-83
2022/03/06 17:04:26;;;;;;;18.20;7.32;;;10.60;43.30;;;;;;5021559;28;20038;-83
2022/03/06 17:06:52;;;;;;;11.18;8.05;;;10.60;43.60;;;;;;4999332;28;20370;-84
2022/03/06 17:09:18;;;;;;;10.73;7.47;;;10.60;43.60;;;;;;5025651;28;20038;-84
2022/03/06 17:11:43;;;;;;;12.98;8.40;;;10.50;43.60;;;;;;5020950;28;20452;-83
2022/03/06 17:14:09;;;;;;;13.32;7.38;;;10.50;43.00;;;;;;5025791;28;20045;-83
2022/03/06 17:16:34;;;;;;;15.40;8.30;;;10.40;44.60;;;;;;5032732;28;20045;-83
2022/03/06 17:19:00;;;;;;;10.25;7.95;;;10.40;43.50;;;;;;5028016;28;20512;-83
2022/03/06 17:21:26;;;;;;;11.93;7.68;;;10.30;43.90;;;;;;5026505;28;20494;-83
2022/03/06 17:23:52;;;;;;;15.02;8.57;;;10.30;44.40;;;;;;5016457;28;20175;-84
2022/03/06 17:26:17;;;;;;;12.75;7.70;;;10.30;44.40;;;;;;5007500;28;20382;-84
2022/03/06 17:28:43;;;;;;;12.68;7.60;;;10.30;44.60;;;;;;5014274;28;20056;-84
2022/03/06 17:31:09;;;;;;;12.90;8.77;;;10.30;44.00;;;;;;4985083;28;20533;-84
2022/03/06 17:33:35;;;;;;;13.85;7.85;;;10.30;45.20;;;;;;4983370;28;20040;-84
2022/03/06 17:36:01;;;;;;;16.48;8.13;;;10.20;45.00;;;;;;5005761;28;20041;-84
2022/03/06 17:38:35;;;;;;;17.23;7.82;;;10.20;45.60;;;;;;4994144;28;20034;-84
2022/03/06 17:41:02;;;;;;;15.18;7.57;;;10.00;45.80;;;;;;5002536;28;20042;-84
2022/03/06 17:43:27;;;;;;;17.75;8.10;;;10.00;46.20;;;;;;5005194;28;20049;-84
2022/03/06 17:45:53;;;;;;;11.23;7.53;;;10.00;46.40;;;;;;5004508;28;20042;-84
2022/03/06 17:48:22;;;;;;;14.50;7.63;;;10.00;46.00;;;;;;5001320;28;20686;-84
2022/03/06 17:50:48;;;;;;;15.93;8.15;;;10.00;46.00;;;;;;5020035;28;20034;-84
2022/03/06 17:53:14;;;;;;;16.50;7.95;;;9.90;46.50;;;;;;5017889;28;20061;-84
2022/03/06 17:55:41;;;;;;;16.20;8.32;;;9.90;47.40;;;;;;5012355;28;20462;-84
2022/03/06 17:58:08;;;;;;;12.85;7.97;;;9.90;46.70;;;;;;5011879;28;20041;-84
2022/03/06 18:00:33;;;;;;;13.13;8.73;;;9.90;47.10;;;;;;4995272;28;20130;-84
2022/03/06 18:02:59;;;;;;;17.33;7.47;;;9.80;46.90;;;;;;5002242;28;20120;-84
2022/03/06 18:05:25;;;;;;;14.00;7.22;;;9.80;47.10;;;;;;5012940;28;20042;-86
2022/03/06 18:07:50;;;;;;;11.60;7.63;;;9.80;46.70;;;;;;5004371;28;20038;-86
2022/03/06 18:10:16;;;;;;;11.38;7.53;;;9.70;48.00;;;;;;5003982;28;20057;-85
2022/03/06 18:12:42;;;;;;;15.00;7.25;;;9.70;47.80;;;;;;5019119;28;20121;-85
2022/03/06 18:15:08;;;;;;;14.55;7.95;;;9.80;47.30;;;;;;5004626;28;20058;-85
2022/03/06 18:17:34;;;;;;;16.02;8.18;;;9.70;48.00;;;;;;5004417;28;20577;-85
2022/03/06 18:19:59;;;;;;;14.75;8.43;;;9.80;47.10;;;;;;5017087;28;20022;-85
2022/03/06 18:22:28;;;;;;;12.13;7.70;;;9.80;47.00;;;;;;4991262;28;20398;-85
2022/03/06 18:24:54;;;;;;;13.55;7.93;;;9.70;47.80;;;;;;5000975;28;20034;-86
2022/03/06 18:27:20;;;;;;;16.90;8.70;;;9.60;47.60;;;;;;5016693;28;20385;-86
2022/03/06 18:29:46;;;;;;;14.77;8.00;;;9.60;47.70;;;;;;5015973;28;20042;-86
2022/03/06 18:32:12;;;;;;;15.15;8.85;;;9.60;48.20;;;;;;5011343;28;20029;-86
2022/03/06 18:34:40;;;;;;;12.90;8.25;;;9.60;48.30;;;;;;4992045;28;20065;-86
2022/03/06 18:37:06;;;;;;;15.18;9.27;;;9.50;48.30;;;;;;5021949;28;20060;-86
2022/03/06 18:39:31;;;;;;;15.25;9.07;;;9.60;47.90;;;;;;5014905;28;20541;-86
2022/03/06 18:41:57;;;;;;;13.82;8.18;;;9.60;48.50;;;;;;5006008;28;20027;-87
2022/03/06 18:44:23;;;;;;;16.23;8.98;;;9.60;48.40;;;;;;5014556;28;20038;-88
2022/03/06 18:46:49;;;;;;;19.42;9.55;;;9.60;47.80;;;;;;5016953;28;20030;-85
2022/03/06 18:49:15;;;;;;;18.25;9.23;;;9.60;48.40;;;;;;5018829;28;20041;-85
2022/03/06 18:51:42;;;;;;;15.82;7.65;;;9.50;49.40;;;;;;5013253;28;20042;-86
2022/03/06 18:54:10;;;;;;;17.10;9.70;;;9.50;48.50;;;;;;4986197;28;20073;-89
2022/03/06 18:56:39;;;;;;;13.85;8.45;;;9.60;48.70;;;;;;5014932;28;20026;-89
2022/03/06 18:59:05;;;;;;;14.23;8.25;;;9.60;48.70;;;;;;5001884;28;20120;-86
2022/03/06 19:01:31;;;;;;;13.60;8.55;;;9.60;48.10;;;;;;5025819;28;20080;-86
2022/03/06 19:03:58;;;;;;;13.35;8.02;;;9.50;48.50;;;;;;5003501;28;20044;-86
2022/03/06 19:06:24;;;;;;;14.82;8.73;;;9.50;48.90;;;;;;5011851;28;20045;-89
2022/03/06 19:08:49;;;;;;;18.45;9.25;;;9.40;48.90;;;;;;5013072;28;20085;-89
2022/03/06 19:11:16;;;;;;;12.30;7.85;;;9.40;49.10;;;;;;5001256;28;20043;-88
2022/03/06 19:13:42;;;;;;;12.48;7.90;;;9.40;48.60;;;;;;5008222;28;20125;-88
2022/03/06 19:16:09;;;;;;;13.05;7.88;;;9.40;48.40;;;;;;5003219;28;20069;-88
2022/03/06 19:18:35;;;;;;;11.82;8.18;;;9.40;49.50;;;;;;5018452;28;20031;-89
2022/03/06 19:21:01;;;;;;;13.65;7.75;;;9.40;48.90;;;;;;4998139;28;20042;-89
2022/03/06 19:23:27;;;;;;;21.50;9.52;;;9.50;48.50;;;;;;5013589;28;20074;-89
2022/03/06 19:25:53;;;;;;;14.85;8.02;;;9.40;49.00;;;;;;5009625;28;20058;-89
2022/03/06 19:28:21;;;;;;;17.23;8.05;;;9.40;48.80;;;;;;5015526;28;20112;-89
2022/03/06 19:30:47;;;;;;;15.48;8.10;;;9.40;48.80;;;;;;4995617;28;20030;-88
2022/03/06 19:33:13;;;;;;;14.57;8.90;;;9.30;48.80;;;;;;5015217;28;20042;-89
2022/03/06 19:35:38;;;;;;;10.80;7.80;;;9.30;48.50;;;;;;5007096;28;20049;-89
2022/03/06 19:38:05;;;;;;;13.55;8.75;;;9.30;49.50;;;;;;4999728;28;20495;-89
2022/03/06 19:40:33;;;;;;;12.95;8.55;;;9.30;49.80;;;;;;5000437;28;20038;-83